Terminal Aerodrome Forecast
Issued by NWS

Home | Current Version | Previous Version | Text Only | Print | Product List | Glossary On
Versions: 1 2 3 4 5 6 7 8 9 10 11 12 13 14 15 16 17 18 19 20 21 22 23
000
FTUS41 KBOX 152329
TAFHYA
TAF
KHYA 152329Z 1600/1624 20015G28KT 3SM -RA BR SCT007 BKN015 OVC050
      WS020/20065KT
     FM160400 23018G33KT 3SM RA BR OVC007
     FM160600 32012G26KT 3SM -RA BR OVC006
     FM161000 33016G33KT 3SM -SHRA OVC050
     FM161200 33018G33KT P6SM BKN250
     FM162200 01011KT P6SM SKC=

USA.gov is the U.S. government's official web portal to all federal, state and local government web resources and services.